createdAt,value
2019-02-03T00:01:10.590Z,1.50
2019-02-03T00:03:39.412Z,1.60
2019-02-03T00:06:08.332Z,1.60
2019-02-03T00:08:37.128Z,1.70
2019-02-03T00:11:06.051Z,1.70
2019-02-03T00:13:35.112Z,1.70
2019-02-03T00:16:05.060Z,1.60
2019-02-03T00:18:33.894Z,1.70
2019-02-03T00:21:02.763Z,1.70
2019-02-03T00:23:31.587Z,1.70
2019-02-03T00:26:00.421Z,1.70
2019-02-03T00:28:29.189Z,1.70
2019-02-03T00:30:57.965Z,1.70
2019-02-03T00:33:26.761Z,1.70
2019-02-03T00:35:55.549Z,1.70
2019-02-03T00:38:25.130Z,1.70
2019-02-03T00:40:54.846Z,1.70
2019-02-03T00:43:23.600Z,1.70
2019-02-03T00:45:52.373Z,1.80
2019-02-03T00:48:21.219Z,1.80
2019-02-03T00:50:49.972Z,1.70
2019-02-03T00:53:19.137Z,1.70
2019-02-03T00:55:48.032Z,1.70
2019-02-03T00:58:16.898Z,1.70
2019-02-03T01:00:45.721Z,1.70
2019-02-03T01:03:14.481Z,1.70
2019-02-03T01:05:43.254Z,1.70
2019-02-03T01:08:12.873Z,1.80
2019-02-03T01:10:41.723Z,1.80
2019-02-03T01:13:10.649Z,1.80
2019-02-03T01:15:39.846Z,1.80
2019-02-03T01:18:08.778Z,1.80
2019-02-03T01:20:37.540Z,1.80
2019-02-03T01:23:06.334Z,1.90
2019-02-03T01:25:35.153Z,1.90
2019-02-03T01:28:04.314Z,1.90
2019-02-03T01:30:33.215Z,1.90
2019-02-03T01:33:02.053Z,2.00
2019-02-03T01:35:30.921Z,2.10
2019-02-03T01:37:59.806Z,2.00
2019-02-03T01:40:30.229Z,2.00
2019-02-03T01:42:59.692Z,2.10
2019-02-03T01:45:28.702Z,2.00
2019-02-03T01:47:57.564Z,2.00
2019-02-03T01:50:26.865Z,2.00
2019-02-03T01:52:55.644Z,2.00
2019-02-03T01:55:26.312Z,2.00
2019-02-03T01:57:55.118Z,2.00
2019-02-03T02:00:26.742Z,2.10
2019-02-03T02:02:55.921Z,2.00
2019-02-03T02:05:24.766Z,2.00
2019-02-03T02:07:53.585Z,2.00
2019-02-03T02:10:25.304Z,2.00
2019-02-03T02:12:54.181Z,2.00
2019-02-03T02:15:23.083Z,2.00
2019-02-03T02:17:52.597Z,2.00
2019-02-03T02:20:23.310Z,2.00
2019-02-03T02:22:52.680Z,2.00
2019-02-03T02:25:23.872Z,1.90
2019-02-03T02:27:52.863Z,2.00
2019-02-03T02:30:24.160Z,2.00
2019-02-03T02:32:53.018Z,2.00
2019-02-03T02:35:21.942Z,1.90
2019-02-03T02:38:05.962Z,1.90
2019-02-03T02:40:24.939Z,1.90
2019-02-03T02:42:53.853Z,1.90
2019-02-03T02:45:23.173Z,2.00
2019-02-03T02:47:52.227Z,2.00
2019-02-03T02:50:29.839Z,2.00
2019-02-03T02:52:58.777Z,2.00
2019-02-03T02:55:27.634Z,2.00
2019-02-03T02:57:56.498Z,2.00
2019-02-03T03:00:26.314Z,2.10
2019-02-03T03:02:55.159Z,2.10
2019-02-03T03:05:24.015Z,2.10
2019-02-03T03:07:52.941Z,2.10
2019-02-03T03:10:22.381Z,2.20
2019-02-03T03:12:51.217Z,2.20
2019-02-03T03:15:23.462Z,2.20
2019-02-03T03:17:52.388Z,2.20
2019-02-03T03:20:22.157Z,2.20
2019-02-03T03:22:51.329Z,2.10
2019-02-03T03:25:21.907Z,2.10
2019-02-03T03:27:51.044Z,2.10
2019-02-03T03:30:27.329Z,2.20
2019-02-03T03:32:56.419Z,2.20
2019-02-03T03:35:26.077Z,2.20
2019-02-03T03:37:54.937Z,2.30
2019-02-03T03:40:28.776Z,2.30
2019-02-03T03:42:57.771Z,2.30
2019-02-03T03:45:26.982Z,2.30
2019-02-03T03:47:56.026Z,2.30
2019-02-03T03:50:24.885Z,2.30
2019-02-03T03:52:53.797Z,2.30
2019-02-03T03:55:22.824Z,2.30
2019-02-03T03:57:51.632Z,2.30
2019-02-03T04:00:25.161Z,2.30
2019-02-03T04:02:54.188Z,2.30
2019-02-03T04:05:23.397Z,2.20
2019-02-03T04:07:52.236Z,2.20
2019-02-03T04:10:22.772Z,2.30
2019-02-03T04:12:51.810Z,2.20
2019-02-03T04:15:21.378Z,2.20
2019-02-03T04:17:50.302Z,2.20
2019-02-03T04:20:21.983Z,2.20
2019-02-03T04:22:50.814Z,2.20
2019-02-03T04:25:19.605Z,2.20
2019-02-03T04:27:48.582Z,2.20
2019-02-03T04:30:20.763Z,2.30
2019-02-03T04:32:49.607Z,2.20
2019-02-03T04:35:18.461Z,2.30
2019-02-03T04:37:47.240Z,2.30
2019-02-03T04:40:18.133Z,2.30
2019-02-03T04:42:47.248Z,2.30
2019-02-03T04:45:17.474Z,2.30
2019-02-03T04:47:46.360Z,2.30
2019-02-03T04:50:17.736Z,2.40
2019-02-03T04:52:46.594Z,2.30
2019-02-03T04:55:18.174Z,2.30
2019-02-03T04:57:47.030Z,2.30
2019-02-03T05:00:18.698Z,2.30
2019-02-03T05:02:47.613Z,2.20
2019-02-03T05:05:17.221Z,2.30
2019-02-03T05:07:45.987Z,2.20
2019-02-03T05:10:15.833Z,2.30
2019-02-03T05:12:44.657Z,2.20
2019-02-03T05:15:16.036Z,2.30
2019-02-03T05:17:44.925Z,2.30
2019-02-03T05:20:16.613Z,2.30
2019-02-03T05:22:45.851Z,2.30
2019-02-03T05:25:15.306Z,2.30
2019-02-03T05:27:44.148Z,2.20
2019-02-03T05:30:15.869Z,2.30
2019-02-03T05:32:44.763Z,2.30
2019-02-03T05:35:13.545Z,2.30
2019-02-03T05:37:42.336Z,2.30
2019-02-03T05:40:13.903Z,2.40
2019-02-03T05:42:42.795Z,2.30
2019-02-03T05:45:14.633Z,2.40
2019-02-03T05:47:43.482Z,2.40
2019-02-03T05:50:14.997Z,2.40
2019-02-03T05:52:43.845Z,2.30
2019-02-03T05:55:13.405Z,2.40
2019-02-03T05:57:42.217Z,2.40
2019-02-03T06:00:30.439Z,2.40
2019-02-03T06:02:59.298Z,2.40
2019-02-03T06:05:28.124Z,2.50
2019-02-03T06:07:56.929Z,2.50
2019-02-03T06:10:26.066Z,2.40
2019-02-03T06:12:54.883Z,2.40
2019-02-03T06:15:23.667Z,2.30
2019-02-03T06:17:52.518Z,2.30
2019-02-03T06:20:21.710Z,2.30
2019-02-03T06:22:50.436Z,2.30
2019-02-03T06:25:19.201Z,2.30
2019-02-03T06:27:48.438Z,2.40
2019-02-03T06:30:26.078Z,2.30
2019-02-03T06:32:54.884Z,2.30
2019-02-03T06:35:23.675Z,2.30
2019-02-03T06:37:52.498Z,2.30
2019-02-03T06:40:21.662Z,2.40
2019-02-03T06:42:50.484Z,2.40
2019-02-03T06:45:29.590Z,2.40
2019-02-03T06:47:59.592Z,2.40
2019-02-03T06:50:28.513Z,2.40
2019-02-03T06:52:57.457Z,2.40
2019-02-03T06:55:26.285Z,2.40
2019-02-03T06:57:55.038Z,2.40
2019-02-03T07:00:23.797Z,2.30
2019-02-03T07:02:52.640Z,2.30
2019-02-03T07:05:21.409Z,2.30
2019-02-03T07:07:50.158Z,2.30
2019-02-03T07:10:18.968Z,2.40
2019-02-03T07:12:47.712Z,2.40
2019-02-03T07:15:16.502Z,2.40
2019-02-03T07:17:45.371Z,2.40
2019-02-03T07:20:18.404Z,2.40
2019-02-03T07:22:47.253Z,2.40
2019-02-03T07:25:16.143Z,2.30
2019-02-03T07:27:45.004Z,2.30
2019-02-03T07:30:18.966Z,2.40
2019-02-03T07:32:47.871Z,2.30
2019-02-03T07:35:16.727Z,2.40
2019-02-03T07:37:45.576Z,2.30
2019-02-03T07:40:16.281Z,2.30
2019-02-03T07:42:45.043Z,2.20
2019-02-03T07:45:14.132Z,2.20
2019-02-03T07:47:43.387Z,2.30
2019-02-03T07:50:14.592Z,2.30
2019-02-03T07:52:43.428Z,2.30
2019-02-03T07:55:15.759Z,2.30
2019-02-03T07:57:44.785Z,2.30
2019-02-03T08:00:15.841Z,2.30
2019-02-03T08:02:44.698Z,2.30
2019-02-03T08:05:13.813Z,2.30
2019-02-03T08:07:42.683Z,2.30
2019-02-03T08:10:24.571Z,2.30
2019-02-03T08:12:43.985Z,2.30
2019-02-03T08:15:19.039Z,2.40
2019-02-03T08:17:47.872Z,2.40
2019-02-03T08:20:19.370Z,2.40
2019-02-03T08:22:48.237Z,2.40
2019-02-03T08:25:18.170Z,2.40
2019-02-03T08:27:47.353Z,2.40
2019-02-03T08:30:18.880Z,2.30
2019-02-03T08:32:47.743Z,2.30
2019-02-03T08:35:16.578Z,2.30
2019-02-03T08:37:45.389Z,2.30
2019-02-03T08:40:36.084Z,2.30
2019-02-03T08:42:55.928Z,2.40
2019-02-03T08:45:25.501Z,2.40
2019-02-03T08:47:54.329Z,2.30
2019-02-03T08:50:24.515Z,2.30
2019-02-03T08:52:53.659Z,2.30
2019-02-03T08:55:22.780Z,2.30
2019-02-03T08:57:51.629Z,2.30
2019-02-03T09:00:31.430Z,2.30
2019-02-03T09:03:00.318Z,2.30
2019-02-03T09:05:29.719Z,2.30
2019-02-03T09:07:58.611Z,2.30
2019-02-03T09:10:27.452Z,2.30
2019-02-03T09:12:56.611Z,2.40
2019-02-03T09:15:27.126Z,2.30
2019-02-03T09:17:55.953Z,2.40
2019-02-03T09:20:26.745Z,2.40
2019-02-03T09:22:55.691Z,2.40
2019-02-03T09:25:24.775Z,2.40
2019-02-03T09:27:53.549Z,2.50
2019-02-03T09:30:24.509Z,2.50
2019-02-03T09:32:53.672Z,2.50
2019-02-03T09:35:22.482Z,2.50
2019-02-03T09:37:51.795Z,2.50
2019-02-03T09:40:25.512Z,2.60
2019-02-03T09:42:54.303Z,2.60
2019-02-03T09:45:23.997Z,2.70
2019-02-03T09:47:53.229Z,2.70
2019-02-03T09:50:27.743Z,2.70
2019-02-03T09:52:58.171Z,2.70
2019-02-03T09:55:27.078Z,2.70
2019-02-03T09:57:56.656Z,2.70
2019-02-03T10:00:34.723Z,2.60
2019-02-03T10:03:04.995Z,2.70
2019-02-03T10:05:36.989Z,2.70
2019-02-03T10:08:04.994Z,2.80
2019-02-03T10:10:35.773Z,2.80
2019-02-03T10:13:05.375Z,2.80
2019-02-03T10:15:34.513Z,2.70
2019-02-03T10:18:04.226Z,2.70
2019-02-03T10:20:33.101Z,2.80
2019-02-03T10:23:01.860Z,2.80
2019-02-03T10:25:31.559Z,2.80
2019-02-03T10:28:00.460Z,2.70
2019-02-03T10:30:29.296Z,2.60
2019-02-03T10:32:58.138Z,2.60
2019-02-03T10:35:28.821Z,2.70
2019-02-03T10:37:58.142Z,2.80
2019-02-03T10:40:29.670Z,2.70
2019-02-03T10:42:59.955Z,2.70
2019-02-03T10:45:29.029Z,2.70
2019-02-03T10:47:57.919Z,2.70
2019-02-03T10:50:29.801Z,2.70
2019-02-03T10:52:59.226Z,2.70
2019-02-03T10:55:28.099Z,2.70
2019-02-03T10:57:57.259Z,2.70
2019-02-03T11:00:32.051Z,2.70
2019-02-03T11:03:01.012Z,2.70
2019-02-03T11:05:32.729Z,2.70
2019-02-03T11:08:01.587Z,2.80
2019-02-03T11:10:30.484Z,2.80
2019-02-03T11:12:59.300Z,2.80
2019-02-03T11:15:28.091Z,2.80
2019-02-03T11:17:56.953Z,2.80
2019-02-03T11:20:31.073Z,3.00
2019-02-03T11:23:00.132Z,3.00
2019-02-03T11:25:30.838Z,3.00
2019-02-03T11:27:59.657Z,3.10
2019-02-03T11:30:32.046Z,3.20
2019-02-03T11:33:05.926Z,3.20
2019-02-03T11:35:32.374Z,3.20
2019-02-03T11:38:01.329Z,3.30
2019-02-03T11:40:32.771Z,3.20
2019-02-03T11:43:01.584Z,3.20
2019-02-03T11:45:35.696Z,3.20
2019-02-03T11:48:08.099Z,3.20
2019-02-03T11:50:39.559Z,3.20
2019-02-03T11:53:10.725Z,3.20
2019-02-03T11:55:39.501Z,3.30
2019-02-03T11:58:08.857Z,3.20
2019-02-03T12:00:37.809Z,3.30
2019-02-03T12:03:07.468Z,3.30
2019-02-03T12:05:36.232Z,3.30
2019-02-03T12:08:05.533Z,3.30
2019-02-03T12:10:34.329Z,3.40
2019-02-03T12:13:03.466Z,3.40
2019-02-03T12:15:32.220Z,3.30
2019-02-03T12:18:01.008Z,3.30
2019-02-03T12:20:29.853Z,3.40
2019-02-03T12:22:58.715Z,3.50
2019-02-03T12:25:33.327Z,3.50
2019-02-03T12:28:02.200Z,3.60
2019-02-03T12:30:32.920Z,3.50
2019-02-03T12:33:02.589Z,3.40
2019-02-03T12:35:31.359Z,3.40
2019-02-03T12:38:00.202Z,3.50
2019-02-03T12:40:31.804Z,3.50
2019-02-03T12:43:00.615Z,3.50
2019-02-03T12:45:30.111Z,3.50
2019-02-03T12:47:58.977Z,3.50
2019-02-03T12:50:27.846Z,3.50
2019-02-03T12:52:56.653Z,3.50
2019-02-03T12:55:28.345Z,3.40
2019-02-03T12:57:57.188Z,3.50
2019-02-03T13:00:28.621Z,3.40
2019-02-03T13:02:57.514Z,3.30
2019-02-03T13:05:27.688Z,3.40
2019-02-03T13:07:57.726Z,3.40
2019-02-03T13:10:28.554Z,3.50
2019-02-03T13:12:57.303Z,3.50
2019-02-03T13:15:29.008Z,3.50
2019-02-03T13:17:57.803Z,3.50
2019-02-03T13:20:29.375Z,3.60
2019-02-03T13:22:58.713Z,3.50
2019-02-03T13:25:27.796Z,3.40
2019-02-03T13:27:56.610Z,3.40
2019-02-03T13:30:31.236Z,3.40
2019-02-03T13:33:00.046Z,3.40
2019-02-03T13:35:28.858Z,3.40
2019-02-03T13:37:57.857Z,3.40
2019-02-03T13:40:26.856Z,3.40
2019-02-03T13:42:55.636Z,3.30
2019-02-03T13:45:27.778Z,3.40
2019-02-03T13:47:59.135Z,3.40
2019-02-03T13:50:28.893Z,3.40
2019-02-03T13:52:58.031Z,3.30
2019-02-03T13:55:27.656Z,3.40
2019-02-03T13:57:56.667Z,3.40
2019-02-03T14:00:28.620Z,3.40
2019-02-03T14:02:57.509Z,3.40
2019-02-03T14:05:26.367Z,3.30
2019-02-03T14:07:55.144Z,3.30
2019-02-03T14:10:29.588Z,3.30
2019-02-03T14:12:58.757Z,3.40
2019-02-03T14:15:27.782Z,3.40
2019-02-03T14:17:56.682Z,3.40
2019-02-03T14:20:30.913Z,3.50
2019-02-03T14:23:00.266Z,3.40
2019-02-03T14:25:29.957Z,3.40
2019-02-03T14:28:00.394Z,3.40
2019-02-03T14:30:40.578Z,3.40
2019-02-03T14:33:05.400Z,3.40
2019-02-03T14:35:34.430Z,3.40
2019-02-03T14:38:04.621Z,3.40
2019-02-03T14:40:33.648Z,3.40
2019-02-03T14:43:02.578Z,3.40
2019-02-03T14:45:31.597Z,3.40
2019-02-03T14:48:00.419Z,3.40
2019-02-03T14:50:29.195Z,3.40
2019-02-03T14:53:04.236Z,3.30
2019-02-03T14:55:38.839Z,3.40
2019-02-03T14:58:07.974Z,3.40
2019-02-03T15:00:50.195Z,3.40
2019-02-03T15:03:20.336Z,3.40
2019-02-03T15:05:49.337Z,3.30
2019-02-03T15:08:18.234Z,3.30
2019-02-03T15:10:47.057Z,3.30
2019-02-03T15:13:16.033Z,3.30
2019-02-03T15:15:45.210Z,3.30
2019-02-03T15:18:14.011Z,3.30
2019-02-03T15:20:42.816Z,3.30
2019-02-03T15:23:11.865Z,3.20
2019-02-03T15:25:40.839Z,3.10
2019-02-03T15:28:10.810Z,3.10
2019-02-03T15:30:41.868Z,3.10
2019-02-03T15:33:10.681Z,3.20
2019-02-03T15:35:39.455Z,3.20
2019-02-03T15:38:10.198Z,3.20
2019-02-03T15:40:38.993Z,3.10
2019-02-03T15:43:07.870Z,3.10
2019-02-03T15:45:36.771Z,3.10
2019-02-03T15:48:06.359Z,3.10
2019-02-03T15:50:35.260Z,3.10
2019-02-03T15:55:36.127Z,3.10
2019-02-03T15:58:10.437Z,3.10
2019-02-03T16:03:45.679Z,3.00
2019-02-03T16:06:18.783Z,2.90
2019-02-03T16:08:52.047Z,2.90
2019-02-03T16:11:29.685Z,3.00
2019-02-03T16:13:59.074Z,3.00
2019-02-03T16:16:32.367Z,3.00
2019-02-03T16:19:08.016Z,3.00
2019-02-03T16:21:43.287Z,3.00
2019-02-03T16:24:14.129Z,2.90
2019-02-03T16:26:49.233Z,2.90
2019-02-03T16:32:14.964Z,2.80
2019-02-03T16:34:47.114Z,2.80
2019-02-03T16:37:21.272Z,2.80
2019-02-03T16:39:59.787Z,2.80
2019-02-03T16:42:42.578Z,2.80
2019-02-03T16:45:13.068Z,2.80
2019-02-03T16:47:50.804Z,2.80
2019-02-03T16:50:31.642Z,2.90
2019-02-03T16:53:05.402Z,2.80
2019-02-03T16:55:36.355Z,2.70
2019-02-03T16:58:06.960Z,2.70
2019-02-03T17:00:44.615Z,2.70
2019-02-03T17:03:22.950Z,2.70
2019-02-03T17:06:07.733Z,2.80
2019-02-03T17:08:33.521Z,2.70
2019-02-03T17:11:02.376Z,2.70
2019-02-03T17:13:31.220Z,2.70
2019-02-03T17:16:00.114Z,2.80
2019-02-03T17:18:28.969Z,2.70
2019-02-03T17:21:01.995Z,2.70
2019-02-03T17:23:28.512Z,2.70
2019-02-03T17:26:02.976Z,2.80
2019-02-03T17:28:31.775Z,2.80
2019-02-03T17:31:00.566Z,2.70
2019-02-03T17:33:29.433Z,2.70
2019-02-03T17:35:58.373Z,2.70
2019-02-03T17:38:27.205Z,2.70
2019-02-03T17:40:56.092Z,2.70
2019-02-03T17:43:24.852Z,2.80
2019-02-03T17:45:54.097Z,2.80
2019-02-03T17:48:23.042Z,2.80
2019-02-03T17:50:51.875Z,2.70
2019-02-03T17:53:20.718Z,2.70
2019-02-03T17:55:49.591Z,2.60
2019-02-03T17:58:18.492Z,2.60
2019-02-03T18:00:49.072Z,2.70
2019-02-03T18:03:18.002Z,2.60
2019-02-03T18:05:47.337Z,2.60
2019-02-03T18:08:16.470Z,2.70
2019-02-03T18:10:45.270Z,2.70
2019-02-03T18:13:14.088Z,2.70
2019-02-03T18:15:42.945Z,2.70
2019-02-03T18:18:12.042Z,2.70
2019-02-03T18:20:40.889Z,2.70
2019-02-03T18:23:10.046Z,2.70
2019-02-03T18:25:39.267Z,2.70
2019-02-03T18:28:08.082Z,2.70
2019-02-03T18:30:38.797Z,2.70
2019-02-03T18:33:08.629Z,2.60
2019-02-03T18:35:37.463Z,2.60
2019-02-03T18:38:09.500Z,2.60
2019-02-03T18:40:38.528Z,2.50
2019-02-03T18:43:07.912Z,2.60
2019-02-03T18:45:36.788Z,2.50
2019-02-03T18:48:05.949Z,2.50
2019-02-03T18:50:35.078Z,2.50
2019-02-03T18:53:04.398Z,2.50
2019-02-03T18:55:38.553Z,2.60
2019-02-03T18:58:07.623Z,2.60
2019-02-03T19:00:38.075Z,2.50
2019-02-03T19:03:09.498Z,2.50
2019-02-03T19:05:40.410Z,2.50
2019-02-03T19:08:09.216Z,2.50
2019-02-03T19:10:38.016Z,2.50
2019-02-03T19:13:07.039Z,2.50
2019-02-03T19:15:36.213Z,2.40
2019-02-03T19:18:06.417Z,2.50
2019-02-03T19:20:37.511Z,2.50
2019-02-03T19:23:07.292Z,2.50
2019-02-03T19:25:36.175Z,2.60
2019-02-03T19:28:06.242Z,2.50
2019-02-03T19:30:37.461Z,2.60
2019-02-03T19:33:06.720Z,2.60
2019-02-03T19:35:36.062Z,2.60
2019-02-03T19:38:07.070Z,2.60
2019-02-03T19:40:36.194Z,2.50
2019-02-03T19:43:06.612Z,2.50
2019-02-03T19:45:35.437Z,2.50
2019-02-03T19:48:05.361Z,2.40
2019-02-03T19:50:39.073Z,2.40
2019-02-03T19:53:09.228Z,2.40
2019-02-03T19:55:38.214Z,2.40
2019-02-03T19:58:07.427Z,2.40
2019-02-03T20:00:44.425Z,2.40
2019-02-03T20:03:13.270Z,2.40
2019-02-03T20:05:42.761Z,2.50
2019-02-03T20:08:12.541Z,2.40
2019-02-03T20:10:41.368Z,2.40
2019-02-03T20:13:10.196Z,2.40
2019-02-03T20:15:39.130Z,2.30
2019-02-03T20:18:08.091Z,2.30
2019-02-03T20:20:41.270Z,2.30
2019-02-03T20:23:10.522Z,2.30
2019-02-03T20:25:39.682Z,2.30
2019-02-03T20:28:09.003Z,2.40
2019-02-03T20:30:39.578Z,2.30
2019-02-03T20:33:08.392Z,2.40
2019-02-03T20:35:37.213Z,2.40
2019-02-03T20:38:06.473Z,2.40
2019-02-03T20:40:38.539Z,2.30
2019-02-03T20:43:07.899Z,2.30
2019-02-03T20:45:48.411Z,2.30
2019-02-03T20:48:07.497Z,2.30
2019-02-03T20:50:38.019Z,2.30
2019-02-03T20:53:06.857Z,2.30
2019-02-03T20:55:35.715Z,2.40
2019-02-03T20:58:04.569Z,2.40
2019-02-03T21:00:35.641Z,2.30
2019-02-03T21:03:05.665Z,2.20
2019-02-03T21:05:34.683Z,2.20
2019-02-03T21:08:13.506Z,2.10
2019-02-03T21:10:42.634Z,2.20
2019-02-03T21:13:12.028Z,2.20
2019-02-03T21:15:40.973Z,2.20
2019-02-03T21:18:10.122Z,2.30
2019-02-03T21:20:38.963Z,2.20
2019-02-03T21:23:07.730Z,2.20
2019-02-03T21:25:37.104Z,2.20
2019-02-03T21:28:06.278Z,2.20
2019-02-03T21:30:37.434Z,2.20
2019-02-03T21:33:06.441Z,2.20
2019-02-03T21:35:35.176Z,2.20
2019-02-03T21:38:04.859Z,2.20
2019-02-03T21:40:33.690Z,2.10
2019-02-03T21:43:02.476Z,2.10
2019-02-03T21:45:31.391Z,2.10
2019-02-03T21:48:00.305Z,2.00
2019-02-03T21:50:32.305Z,2.00
2019-02-03T21:53:01.075Z,1.90
2019-02-03T21:55:29.921Z,1.90
2019-02-03T21:57:58.766Z,1.90
2019-02-03T22:00:30.759Z,1.80
2019-02-03T22:02:59.702Z,1.80
2019-02-03T22:05:28.950Z,1.80
2019-02-03T22:07:57.874Z,1.80
2019-02-03T22:10:35.461Z,1.70
2019-02-03T22:13:05.770Z,1.70
2019-02-03T22:15:34.656Z,1.70
2019-02-03T22:18:03.610Z,1.70
2019-02-03T22:20:32.518Z,1.70
2019-02-03T22:23:01.268Z,1.70
2019-02-03T22:25:30.021Z,1.60
2019-02-03T22:27:58.757Z,1.60
2019-02-03T22:30:30.022Z,1.60
2019-02-03T22:32:58.885Z,1.60
2019-02-03T22:35:27.738Z,1.60
2019-02-03T22:37:56.603Z,1.50
2019-02-03T22:40:25.749Z,1.50
2019-02-03T22:42:54.587Z,1.50
2019-02-03T22:45:24.815Z,1.50
2019-02-03T22:47:54.021Z,1.50
2019-02-03T22:50:24.938Z,1.40
2019-02-03T22:52:53.892Z,1.40
2019-02-03T22:55:22.702Z,1.40
2019-02-03T22:57:51.483Z,1.40
2019-02-03T23:00:52.031Z,1.30
2019-02-03T23:03:27.026Z,1.30
2019-02-03T23:05:55.878Z,1.30
2019-02-03T23:08:24.712Z,1.20
2019-02-03T23:10:53.524Z,1.20
2019-02-03T23:13:22.354Z,1.20
2019-02-03T23:15:51.425Z,1.20
2019-02-03T23:18:20.262Z,1.20
2019-02-03T23:20:49.162Z,1.20
2019-02-03T23:23:17.969Z,1.20
2019-02-03T23:25:46.765Z,1.20
2019-02-03T23:28:15.585Z,1.10
2019-02-03T23:30:44.630Z,1.10
2019-02-03T23:33:13.424Z,1.10
2019-02-03T23:35:42.278Z,1.10
2019-02-03T23:38:11.058Z,1.10
2019-02-03T23:40:39.872Z,1.00
2019-02-03T23:43:09.092Z,1.00
2019-02-03T23:45:37.904Z,1.00
2019-02-03T23:48:06.748Z,1.00
2019-02-03T23:50:35.988Z,1.00
2019-02-03T23:53:04.800Z,0.90
2019-02-03T23:55:33.655Z,0.90
2019-02-03T23:58:02.482Z,0.90
